Time;durP1;ratioP1;P1;durP2;ratioP2;P2;SDS_P1;SDS_P2;PMS_P1;PMS_P2;Temp;Humidity;BMP_temperature;BMP_pressure;BME280_temperature;BME280_humidity;BME280_pressure;Samples;Min_cycle;Max_cycle;Signal;HPM_P1;HPM_P2
2021/12/27 00:00:37;;;;;;;0.20;0.20;;;5.90;99.90;;;;;;5018250;28;20025;-94
2021/12/27 00:03:04;;;;;;;0.10;0.10;;;5.90;99.90;;;;;;5017974;28;20029;-92
2021/12/27 00:05:33;;;;;;;0.10;0.10;;;6.00;99.90;;;;;;5017851;28;20079;-94
2021/12/27 00:07:59;;;;;;;0.10;0.10;;;6.00;99.90;;;;;;5018156;28;20031;-93
2021/12/27 00:10:27;;;;;;;0.25;0.25;;;6.10;99.90;;;;;;5017475;28;20482;-92
2021/12/27 00:12:54;;;;;;;0.20;0.20;;;6.00;99.90;;;;;;5017842;28;20029;-93
2021/12/27 00:15:32;;;;;;;0.10;0.10;;;5.90;99.90;;;;;;5017644;28;20029;-92
2021/12/27 00:18:01;;;;;;;0.17;0.17;;;5.90;99.90;;;;;;5018319;28;20022;-93
2021/12/27 00:20:27;;;;;;;0.10;0.10;;;5.90;99.90;;;;;;5017891;28;20401;-92
2021/12/27 00:22:53;;;;;;;0.20;0.20;;;6.00;99.90;;;;;;5017962;28;20052;-93
2021/12/27 00:25:20;;;;;;;0.20;0.20;;;6.20;99.90;;;;;;5026091;28;20041;-92
2021/12/27 00:27:47;;;;;;;0.40;0.40;;;6.10;99.90;;;;;;5021426;28;20148;-93
2021/12/27 00:30:15;;;;;;;0.20;0.20;;;6.20;99.90;;;;;;5017011;28;20029;-93
2021/12/27 00:32:44;;;;;;;0.20;0.20;;;6.20;99.90;;;;;;5017663;28;20026;-93
2021/12/27 00:35:12;;;;;;;0.10;0.10;;;6.30;99.90;;;;;;5016962;28;20029;-93
2021/12/27 00:37:38;;;;;;;0.10;0.10;;;6.30;99.90;;;;;;5017147;28;20029;-93
2021/12/27 00:40:05;;;;;;;0.20;0.20;;;6.40;99.90;;;;;;5017154;28;20033;-93
2021/12/27 00:42:31;;;;;;;0.13;0.13;;;6.50;99.90;;;;;;5016852;28;20056;-92
2021/12/27 00:44:59;;;;;;;0.20;0.20;;;6.40;99.90;;;;;;5017531;28;20051;-93
2021/12/27 00:47:25;;;;;;;0.10;0.10;;;6.50;99.90;;;;;;5017168;28;20064;-93
2021/12/27 00:49:51;;;;;;;0.30;0.30;;;6.50;99.90;;;;;;5017620;28;20079;-93
2021/12/27 00:52:17;;;;;;;0.10;0.10;;;6.30;99.90;;;;;;5018041;28;20025;-93
2021/12/27 00:54:42;;;;;;;0.10;0.10;;;6.20;99.90;;;;;;5030323;28;20052;-93
2021/12/27 00:57:08;;;;;;;0.20;0.20;;;6.40;99.90;;;;;;5031586;28;20089;-93
2021/12/27 00:59:34;;;;;;;0.10;0.10;;;6.30;99.90;;;;;;5017740;28;20026;-93
2021/12/27 01:01:59;;;;;;;0.20;0.20;;;6.30;99.90;;;;;;5032990;28;20029;-92
2021/12/27 01:04:25;;;;;;;0.30;0.30;;;6.20;99.90;;;;;;5017007;28;20036;-93
2021/12/27 01:06:51;;;;;;;0.10;0.10;;;6.20;99.90;;;;;;5017040;28;20025;-93
2021/12/27 01:15:21;;;;;;;0.13;0.13;;;5.90;99.90;;;;;;5032823;28;20030;-93
2021/12/27 01:17:50;;;;;;;0.20;0.20;;;6.00;99.90;;;;;;5016287;28;20117;-93
2021/12/27 01:20:19;;;;;;;0.20;0.20;;;6.00;99.90;;;;;;5015946;28;20029;-93
2021/12/27 01:22:45;;;;;;;0.10;0.10;;;6.10;99.90;;;;;;5016258;28;20061;-93
2021/12/27 01:25:12;;;;;;;0.10;0.10;;;6.10;99.90;;;;;;5016829;28;20060;-93
2021/12/27 01:27:40;;;;;;;0.10;0.10;;;6.10;99.90;;;;;;5016616;28;20053;-93
2021/12/27 01:30:08;;;;;;;4.75;1.67;;;6.00;99.90;;;;;;5016211;28;20452;-93
2021/12/27 01:32:40;;;;;;;0.20;0.20;;;6.00;99.90;;;;;;5016002;28;20036;-93
2021/12/27 01:35:09;;;;;;;0.20;0.20;;;5.90;99.90;;;;;;5016041;28;20025;-93
2021/12/27 01:37:35;;;;;;;0.60;0.60;;;5.80;99.90;;;;;;5015803;28;20032;-93
2021/12/27 01:40:01;;;;;;;0.10;0.10;;;5.80;99.90;;;;;;5015945;28;20029;-93
2021/12/27 01:42:27;;;;;;;0.17;0.17;;;5.80;99.90;;;;;;5015875;28;20071;-93
2021/12/27 01:44:53;;;;;;;0.10;0.10;;;5.90;99.90;;;;;;5016318;28;20478;-93
2021/12/27 01:47:20;;;;;;;0.20;0.20;;;5.90;99.90;;;;;;5015671;28;20033;-93
2021/12/27 01:50:55;;;;;;;0.13;0.13;;;6.00;99.90;;;;;;5015833;28;20406;-93
2021/12/27 02:01:23;;;;;;;0.20;0.20;;;5.80;99.90;;;;;;4994472;28;20038;-93
2021/12/27 02:03:53;;;;;;;0.20;0.20;;;5.60;99.90;;;;;;4978460;28;20510;-92
2021/12/27 02:06:20;;;;;;;0.10;0.10;;;5.60;99.90;;;;;;5015844;28;20506;-93
2021/12/27 02:08:46;;;;;;;0.10;0.10;;;5.60;99.90;;;;;;5015794;28;20029;-92
2021/12/27 02:11:14;;;;;;;0.10;0.10;;;5.70;99.90;;;;;;5015455;28;20144;-93
2021/12/27 02:13:44;;;;;;;0.20;0.20;;;5.70;99.90;;;;;;5015342;28;20025;-92
2021/12/27 02:16:11;;;;;;;0.15;0.15;;;5.80;99.90;;;;;;5015955;28;20398;-93
2021/12/27 02:18:37;;;;;;;0.20;0.20;;;6.00;99.90;;;;;;5015509;28;20028;-93
2021/12/27 02:40:22;;;;;;;;;;;;;;;;;;;;;
2021/12/27 02:43:45;;;;;;;0.20;0.20;;;6.00;99.90;;;;;;4973223;28;20157;-93
2021/12/27 02:54:59;;;;;;;0.10;0.10;;;5.80;99.90;;;;;;4954225;29;20102;-93
2021/12/27 02:59:00;;;;;;;;;;;;;;;;;;;;;
2021/12/27 03:02:26;;;;;;;0.10;0.10;;;5.80;99.90;;;;;;5002721;28;20126;-93
2021/12/27 03:05:42;;;;;;;;;;;5.90;99.90;;;;;;4997621;28;20034;-93
2021/12/27 03:24:21;;;;;;;0.20;0.20;;;5.60;99.90;;;;;;4942047;28;20117;-93
2021/12/27 03:34:25;;;;;;;0.20;0.20;;;5.60;99.90;;;;;;4998305;28;20060;-92
2021/12/27 03:36:50;;;;;;;0.20;0.20;;;5.70;99.90;;;;;;5013638;22;20042;-76
2021/12/27 03:39:16;;;;;;;0.10;0.10;;;5.80;99.90;;;;;;4987240;28;20117;-77
2021/12/27 03:41:42;;;;;;;0.20;0.20;;;5.60;99.90;;;;;;5003004;28;20026;-77
2021/12/27 03:44:08;;;;;;;0.20;0.20;;;5.40;99.90;;;;;;5004988;28;20026;-77
2021/12/27 03:46:34;;;;;;;0.10;0.10;;;5.30;99.90;;;;;;5002696;28;20110;-77
2021/12/27 03:49:00;;;;;;;0.10;0.10;;;5.20;99.90;;;;;;5003184;28;20110;-78
2021/12/27 03:51:25;;;;;;;0.20;0.20;;;5.20;99.90;;;;;;5004027;28;20421;-77
2021/12/27 03:53:52;;;;;;;0.10;0.10;;;5.20;99.90;;;;;;4987267;28;20094;-78
2021/12/27 03:56:22;;;;;;;0.10;0.10;;;5.30;99.90;;;;;;5003337;28;20022;-77
2021/12/27 03:58:56;;;;;;;0.20;0.20;;;5.30;99.90;;;;;;4987382;28;20049;-77
2021/12/27 04:01:24;;;;;;;0.10;0.10;;;5.30;99.90;;;;;;5002703;28;20026;-77
2021/12/27 04:03:56;;;;;;;0.10;0.10;;;5.40;99.90;;;;;;4987078;28;20030;-77
2021/12/27 04:06:24;;;;;;;0.10;0.10;;;5.40;99.90;;;;;;5003666;28;20034;-77
2021/12/27 04:08:50;;;;;;;0.10;0.10;;;5.50;99.90;;;;;;5004116;28;20057;-77
2021/12/27 04:11:15;;;;;;;0.20;0.20;;;5.40;99.90;;;;;;5002580;28;20023;-78
2021/12/27 04:13:42;;;;;;;0.20;0.20;;;5.40;99.90;;;;;;5001943;28;20022;-77
2021/12/27 04:16:07;;;;;;;0.10;0.10;;;5.50;99.90;;;;;;4986438;28;20052;-78
2021/12/27 04:18:33;;;;;;;0.10;0.10;;;5.50;99.90;;;;;;5003776;28;20094;-77
2021/12/27 04:20:59;;;;;;;2.47;1.20;;;5.60;99.90;;;;;;5003215;28;20033;-77
2021/12/27 04:23:25;;;;;;;0.10;0.10;;;5.70;99.90;;;;;;5002870;28;20034;-78
2021/12/27 04:25:51;;;;;;;0.10;0.10;;;5.80;99.90;;;;;;5002743;28;20057;-78
2021/12/27 04:28:17;;;;;;;0.20;0.20;;;6.00;99.90;;;;;;5003400;28;20030;-78
2021/12/27 04:30:43;;;;;;;0.10;0.10;;;6.00;99.90;;;;;;5004352;28;20072;-77
2021/12/27 04:33:09;;;;;;;0.10;0.10;;;5.90;99.90;;;;;;5004311;28;20029;-77
2021/12/27 04:35:35;;;;;;;0.17;0.17;;;6.00;99.90;;;;;;5002971;28;20405;-77
2021/12/27 04:38:02;;;;;;;0.10;0.10;;;6.20;99.90;;;;;;5003031;28;20041;-77
2021/12/27 04:40:30;;;;;;;0.30;0.30;;;6.10;99.90;;;;;;5003484;28;20023;-78
2021/12/27 04:43:06;;;;;;;0.20;0.20;;;6.10;99.90;;;;;;5004190;28;20027;-78
2021/12/27 04:45:32;;;;;;;0.20;0.20;;;6.20;99.90;;;;;;5004676;28;20030;-77
2021/12/27 04:47:57;;;;;;;0.10;0.10;;;6.10;99.90;;;;;;5002878;28;20034;-77
2021/12/27 04:50:23;;;;;;;0.20;0.20;;;6.00;99.90;;;;;;5002127;28;20019;-77
2021/12/27 04:52:53;;;;;;;0.10;0.10;;;6.00;99.90;;;;;;5002139;28;20030;-78
2021/12/27 04:55:23;;;;;;;0.20;0.20;;;5.90;99.90;;;;;;5001967;28;20028;-78
2021/12/27 04:57:49;;;;;;;0.20;0.20;;;5.80;99.90;;;;;;5004403;28;20026;-78
2021/12/27 05:00:15;;;;;;;0.13;0.13;;;6.00;99.90;;;;;;5003889;28;20069;-78
2021/12/27 05:02:41;;;;;;;0.43;0.43;;;5.90;99.90;;;;;;5002132;28;20042;-78
2021/12/27 05:05:07;;;;;;;0.10;0.10;;;5.70;99.90;;;;;;5003865;28;20023;-77
2021/12/27 05:07:33;;;;;;;0.20;0.20;;;5.50;99.90;;;;;;5001521;28;20023;-78
2021/12/27 05:09:59;;;;;;;0.20;0.20;;;5.50;99.90;;;;;;5002772;28;20152;-77
2021/12/27 05:12:25;;;;;;;0.17;0.17;;;5.50;99.90;;;;;;5001311;28;20081;-77
2021/12/27 05:14:51;;;;;;;0.13;0.13;;;5.60;99.90;;;;;;5002770;28;20050;-77
2021/12/27 05:17:16;;;;;;;0.10;0.10;;;5.50;99.90;;;;;;5001137;28;20077;-77
2021/12/27 05:19:42;;;;;;;0.20;0.20;;;5.50;99.90;;;;;;5000410;28;20026;-77
2021/12/27 05:22:08;;;;;;;0.10;0.10;;;5.40;99.90;;;;;;5002538;28;20049;-77
2021/12/27 05:24:33;;;;;;;0.20;0.20;;;5.50;99.90;;;;;;5002098;28;20023;-77
2021/12/27 05:26:59;;;;;;;0.20;0.20;;;5.60;99.90;;;;;;5002128;28;20022;-77
2021/12/27 05:29:25;;;;;;;0.20;0.20;;;5.60;99.90;;;;;;5000891;28;20397;-77
2021/12/27 05:31:51;;;;;;;0.20;0.20;;;5.60;99.90;;;;;;5001555;28;20034;-76
2021/12/27 05:34:17;;;;;;;0.10;0.10;;;5.50;99.90;;;;;;5002069;28;20033;-77
2021/12/27 05:36:44;;;;;;;0.20;0.20;;;5.50;99.90;;;;;;4999916;28;20038;-77
2021/12/27 05:39:12;;;;;;;0.10;0.10;;;5.60;99.90;;;;;;5001090;28;20022;-77
2021/12/27 05:41:38;;;;;;;0.20;0.20;;;5.40;99.90;;;;;;4983728;28;20049;-77
2021/12/27 05:44:04;;;;;;;0.20;0.20;;;5.40;99.90;;;;;;4984363;28;20033;-78
2021/12/27 05:46:30;;;;;;;0.10;0.10;;;5.40;99.90;;;;;;5000541;28;20032;-78
2021/12/27 05:48:56;;;;;;;0.28;0.28;;;5.40;99.90;;;;;;5001131;28;20030;-77
2021/12/27 05:51:21;;;;;;;0.32;0.30;;;5.40;99.90;;;;;;5001673;28;20033;-77
2021/12/27 05:53:47;;;;;;;0.13;0.13;;;5.30;99.90;;;;;;5001203;28;20030;-77
2021/12/27 05:56:13;;;;;;;0.10;0.10;;;5.20;99.90;;;;;;5001089;28;20466;-78
2021/12/27 05:58:38;;;;;;;0.20;0.20;;;5.20;99.90;;;;;;5000130;28;20029;-78
2021/12/27 06:01:04;;;;;;;0.20;0.20;;;5.30;99.90;;;;;;5000478;28;20030;-78
2021/12/27 06:03:30;;;;;;;0.10;0.10;;;5.30;99.90;;;;;;5004058;28;20026;-77
2021/12/27 06:05:56;;;;;;;0.13;0.13;;;5.30;99.90;;;;;;4987959;28;20065;-77
2021/12/27 06:08:22;;;;;;;0.10;0.10;;;5.30;99.90;;;;;;5004112;28;20454;-78
2021/12/27 06:10:47;;;;;;;0.10;0.10;;;5.30;99.90;;;;;;4988232;28;20439;-77
2021/12/27 06:13:13;;;;;;;0.20;0.20;;;5.40;99.90;;;;;;5004088;28;20090;-77
2021/12/27 06:15:39;;;;;;;0.20;0.20;;;5.40;99.90;;;;;;4987363;28;20033;-77
2021/12/27 06:18:04;;;;;;;0.22;0.22;;;5.50;99.90;;;;;;5004060;28;20169;-77
2021/12/27 06:20:30;;;;;;;0.10;0.10;;;5.50;99.90;;;;;;5003634;28;20026;-77
2021/12/27 06:22:58;;;;;;;0.20;0.20;;;5.50;99.90;;;;;;5003959;28;20057;-78
2021/12/27 06:25:25;;;;;;;0.20;0.20;;;5.50;99.90;;;;;;5005215;28;20032;-78
2021/12/27 06:27:51;;;;;;;0.10;0.10;;;5.50;99.90;;;;;;5005310;28;20022;-78
2021/12/27 06:30:17;;;;;;;0.13;0.13;;;5.40;99.90;;;;;;4988164;28;20049;-77
2021/12/27 06:32:44;;;;;;;0.30;0.30;;;5.40;99.90;;;;;;5005118;28;20026;-78
2021/12/27 06:35:11;;;;;;;0.10;0.10;;;5.30;99.90;;;;;;4989355;28;20050;-79
2021/12/27 06:37:40;;;;;;;0.20;0.20;;;5.20;99.90;;;;;;5006266;28;20054;-78
2021/12/27 06:40:06;;;;;;;0.20;0.20;;;5.10;99.90;;;;;;5006219;28;20041;-78
2021/12/27 06:42:32;;;;;;;0.20;0.20;;;5.10;99.90;;;;;;5006628;28;20066;-78
2021/12/27 06:44:58;;;;;;;0.10;0.10;;;5.20;99.90;;;;;;5006352;28;20030;-78
2021/12/27 06:47:25;;;;;;;0.20;0.20;;;5.30;99.90;;;;;;4988894;28;20022;-78
2021/12/27 06:49:52;;;;;;;0.20;0.20;;;5.40;99.90;;;;;;5006392;28;20034;-77
2021/12/27 06:52:18;;;;;;;0.20;0.20;;;5.50;99.90;;;;;;5006888;28;20102;-78
2021/12/27 06:54:44;;;;;;;0.10;0.10;;;5.60;99.90;;;;;;5007726;28;20022;-78
2021/12/27 06:57:10;;;;;;;0.20;0.20;;;5.60;99.90;;;;;;5005047;28;20018;-78
2021/12/27 06:59:36;;;;;;;0.13;0.13;;;5.60;99.90;;;;;;5006262;28;20038;-78
2021/12/27 07:02:03;;;;;;;0.32;0.32;;;5.40;99.90;;;;;;5008335;28;20025;-78
2021/12/27 07:04:31;;;;;;;0.20;0.20;;;5.40;99.90;;;;;;5020940;28;20056;-79
2021/12/27 07:06:57;;;;;;;0.20;0.20;;;5.40;99.90;;;;;;5016326;28;20540;-78
2021/12/27 07:09:23;;;;;;;0.13;0.13;;;5.40;99.90;;;;;;5010668;28;20022;-78
2021/12/27 07:11:48;;;;;;;0.20;0.20;;;5.40;99.90;;;;;;5009922;28;20037;-78
2021/12/27 07:14:14;;;;;;;0.20;0.20;;;5.40;99.90;;;;;;5008333;28;20057;-78
2021/12/27 07:16:40;;;;;;;0.20;0.20;;;5.40;99.90;;;;;;4992553;28;20030;-78
2021/12/27 07:19:06;;;;;;;0.20;0.20;;;5.40;99.90;;;;;;5010990;28;20026;-78
2021/12/27 07:21:31;;;;;;;0.20;0.20;;;5.40;99.90;;;;;;5027002;28;20026;-77
2021/12/27 07:23:57;;;;;;;0.55;0.55;;;5.40;99.90;;;;;;5026591;28;20113;-77
2021/12/27 07:26:23;;;;;;;0.10;0.10;;;5.30;99.90;;;;;;5017452;28;20038;-77
2021/12/27 07:28:49;;;;;;;0.20;0.20;;;5.30;99.90;;;;;;5010891;28;20026;-79
2021/12/27 07:31:15;;;;;;;0.30;0.30;;;5.40;99.90;;;;;;5009593;28;20049;-78
2021/12/27 07:33:41;;;;;;;0.10;0.10;;;5.30;99.90;;;;;;5010124;28;20113;-79
2021/12/27 07:36:10;;;;;;;0.20;0.20;;;5.40;99.90;;;;;;4991792;28;20549;-78
2021/12/27 07:38:37;;;;;;;0.20;0.20;;;5.40;99.90;;;;;;5010825;28;20019;-78
2021/12/27 07:41:03;;;;;;;0.20;0.20;;;5.40;99.90;;;;;;5009861;28;20022;-79
2021/12/27 07:43:30;;;;;;;0.10;0.10;;;5.60;99.90;;;;;;5009940;28;20032;-77
2021/12/27 07:45:56;;;;;;;0.10;0.10;;;5.60;99.90;;;;;;5003569;28;20034;-77
2021/12/27 07:48:21;;;;;;;0.10;0.10;;;5.60;99.90;;;;;;5004787;28;20026;-78
2021/12/27 07:50:47;;;;;;;0.20;0.20;;;5.60;99.90;;;;;;5006148;28;20026;-78
2021/12/27 07:53:13;;;;;;;0.20;0.20;;;5.60;99.90;;;;;;5011386;28;20378;-77
2021/12/27 07:55:39;;;;;;;0.20;0.20;;;5.70;99.90;;;;;;5009637;28;20027;-78
2021/12/27 07:58:05;;;;;;;0.20;0.20;;;5.70;99.90;;;;;;5011938;28;20074;-78
2021/12/27 08:00:31;;;;;;;0.20;0.20;;;5.90;99.90;;;;;;5011419;28;20026;-77
2021/12/27 08:02:57;;;;;;;0.17;0.17;;;6.00;99.90;;;;;;5009881;28;20023;-78
2021/12/27 08:05:23;;;;;;;0.20;0.20;;;5.90;99.90;;;;;;5009856;28;20022;-78
2021/12/27 08:07:49;;;;;;;0.20;0.20;;;5.80;99.90;;;;;;5008780;28;20023;-78
2021/12/27 08:10:15;;;;;;;0.20;0.20;;;5.70;99.90;;;;;;5010840;28;20056;-77
2021/12/27 08:12:42;;;;;;;0.20;0.20;;;5.70;99.90;;;;;;5027586;28;20021;-77
2021/12/27 08:15:09;;;;;;;0.20;0.20;;;5.70;99.90;;;;;;5028642;28;20029;-78
2021/12/27 08:17:36;;;;;;;0.20;0.20;;;5.80;99.90;;;;;;5027785;28;20045;-78
2021/12/27 08:20:04;;;;;;;0.20;0.20;;;5.90;99.90;;;;;;5007424;28;20041;-77
2021/12/27 08:22:29;;;;;;;0.20;0.20;;;6.00;99.90;;;;;;5006764;28;20034;-77
2021/12/27 08:24:55;;;;;;;0.20;0.20;;;6.10;99.90;;;;;;5003769;28;20041;-77
2021/12/27 08:27:24;;;;;;;0.10;0.10;;;6.20;99.90;;;;;;5003966;28;20418;-78
2021/12/27 08:29:49;;;;;;;0.20;0.20;;;6.00;99.90;;;;;;4986913;28;20445;-77
2021/12/27 08:32:16;;;;;;;0.22;0.22;;;6.10;99.90;;;;;;5003837;28;20034;-78
2021/12/27 08:34:42;;;;;;;0.20;0.20;;;6.10;99.90;;;;;;5024587;28;20045;-77
2021/12/27 08:37:08;;;;;;;0.10;0.10;;;6.20;99.90;;;;;;5022129;28;20036;-78
2021/12/27 08:39:34;;;;;;;0.20;0.20;;;6.30;99.90;;;;;;5022623;28;20053;-77
2021/12/27 08:42:01;;;;;;;0.20;0.20;;;6.30;99.90;;;;;;5022310;28;20054;-77
2021/12/27 08:44:27;;;;;;;0.20;0.20;;;6.30;99.90;;;;;;5022845;28;20046;-78
2021/12/27 08:46:54;;;;;;;0.20;0.20;;;6.20;99.90;;;;;;5005832;28;20037;-78
2021/12/27 08:49:19;;;;;;;0.10;0.10;;;6.30;99.90;;;;;;5022329;28;20022;-78
2021/12/27 08:51:46;;;;;;;0.20;0.20;;;6.40;99.90;;;;;;5005165;28;20036;-78
2021/12/27 08:54:12;;;;;;;0.20;0.20;;;6.60;99.90;;;;;;5023922;28;20034;-78
2021/12/27 08:56:38;;;;;;;0.40;0.40;;;6.70;99.90;;;;;;5006599;28;20486;-78
2021/12/27 08:59:05;;;;;;;0.20;0.20;;;6.80;99.90;;;;;;5023485;28;20022;-78
2021/12/27 09:01:31;;;;;;;0.20;0.20;;;7.00;99.90;;;;;;5012093;28;20416;-77
2021/12/27 09:03:57;;;;;;;0.20;0.20;;;6.90;99.90;;;;;;5028443;28;20021;-77
2021/12/27 09:06:23;;;;;;;0.20;0.20;;;7.00;99.90;;;;;;5029165;28;20549;-77
2021/12/27 09:08:49;;;;;;;0.20;0.20;;;7.10;99.90;;;;;;5028178;28;20029;-78
2021/12/27 09:11:15;;;;;;;1.58;1.55;;;7.10;99.90;;;;;;5001780;28;20513;-77
2021/12/27 09:13:41;;;;;;;0.20;0.20;;;7.10;99.90;;;;;;5008697;28;20045;-77
2021/12/27 09:16:10;;;;;;;0.20;0.20;;;7.10;99.90;;;;;;4992644;28;20026;-77
2021/12/27 09:18:36;;;;;;;0.10;0.10;;;7.30;99.90;;;;;;4998739;28;20026;-77
2021/12/27 09:21:03;;;;;;;0.10;0.10;;;7.40;99.90;;;;;;4996175;28;20108;-77
2021/12/27 09:23:29;;;;;;;0.17;0.17;;;7.60;99.90;;;;;;5012521;28;20113;-78
2021/12/27 09:25:55;;;;;;;0.20;0.20;;;7.70;99.90;;;;;;5024365;28;20114;-78
2021/12/27 09:28:21;;;;;;;0.20;0.20;;;7.70;99.90;;;;;;5009746;28;20104;-78
2021/12/27 09:30:47;;;;;;;0.20;0.20;;;7.70;99.90;;;;;;5009580;28;20035;-78
2021/12/27 09:33:13;;;;;;;0.20;0.20;;;7.60;99.90;;;;;;5007168;28;20378;-77
2021/12/27 09:35:39;;;;;;;0.10;0.10;;;7.60;99.90;;;;;;5019186;22;20465;-79
2021/12/27 09:38:05;;;;;;;0.50;0.50;;;7.70;99.90;;;;;;5032852;28;20347;-79
2021/12/27 09:40:31;;;;;;;0.20;0.20;;;7.70;99.90;;;;;;5016084;28;20104;-78
2021/12/27 09:42:57;;;;;;;0.15;0.15;;;7.80;99.90;;;;;;5031404;28;20026;-76
2021/12/27 09:45:23;;;;;;;0.20;0.20;;;7.80;99.90;;;;;;5013260;28;20195;-76
2021/12/27 09:47:51;;;;;;;0.20;0.20;;;7.90;99.90;;;;;;5032289;28;20021;-76
2021/12/27 09:50:25;;;;;;;0.10;0.10;;;8.10;99.90;;;;;;5041436;28;20016;-75
2021/12/27 09:52:51;;;;;;;0.20;0.20;;;8.10;99.90;;;;;;5037929;28;20492;-76
2021/12/27 09:55:17;;;;;;;0.10;0.10;;;8.20;99.90;;;;;;5050971;28;20048;-75
2021/12/27 09:57:43;;;;;;;0.10;0.10;;;8.20;99.90;;;;;;5040782;28;20079;-77
2021/12/27 10:00:10;;;;;;;0.30;0.30;;;8.10;99.90;;;;;;5014237;28;20025;-76
2021/12/27 10:02:38;;;;;;;0.20;0.20;;;8.10;99.90;;;;;;5030988;28;20033;-76
2021/12/27 10:05:04;;;;;;;0.10;0.10;;;8.00;99.90;;;;;;5031165;28;20029;-75
2021/12/27 10:07:30;;;;;;;0.15;0.15;;;7.90;99.90;;;;;;5030699;28;20397;-77
2021/12/27 10:09:59;;;;;;;0.10;0.10;;;7.90;99.90;;;;;;5030957;28;20041;-76
2021/12/27 10:12:27;;;;;;;0.15;0.15;;;8.00;99.90;;;;;;5030936;28;20033;-75
2021/12/27 10:14:56;;;;;;;0.10;0.10;;;8.10;99.90;;;;;;5030730;28;20030;-76
2021/12/27 10:17:23;;;;;;;0.55;0.55;;;8.20;99.90;;;;;;5030991;28;20021;-76
2021/12/27 10:19:51;;;;;;;0.20;0.20;;;8.30;99.90;;;;;;5030614;28;20032;-76
2021/12/27 10:22:16;;;;;;;0.20;0.20;;;8.50;99.90;;;;;;5030598;28;20376;-76
2021/12/27 10:24:43;;;;;;;0.20;0.20;;;8.80;99.90;;;;;;5030809;28;20033;-77
2021/12/27 10:27:08;;;;;;;0.17;0.17;;;8.90;99.90;;;;;;5030692;28;20503;-75
2021/12/27 10:29:37;;;;;;;0.20;0.20;;;9.40;99.90;;;;;;5029135;28;20025;-76
2021/12/27 10:32:11;;;;;;;0.10;0.10;;;9.60;99.90;;;;;;5023109;28;20014;-76
2021/12/27 10:34:39;;;;;;;0.25;0.25;;;9.80;99.90;;;;;;5030128;28;20079;-76
2021/12/27 10:37:10;;;;;;;0.20;0.20;;;10.20;99.90;;;;;;5030178;28;20060;-76
2021/12/27 10:39:55;;;;;;;0.10;0.10;;;11.40;99.90;;;;;;5014371;28;20390;-76
2021/12/27 10:42:29;;;;;;;0.98;0.98;;;12.70;99.90;;;;;;5030574;28;20037;-77
2021/12/27 10:45:08;;;;;;;0.13;0.13;;;13.50;99.90;;;;;;5030552;28;20044;-76
2021/12/27 10:48:02;;;;;;;0.10;0.10;;;14.20;98.80;;;;;;5031644;28;20455;-76
2021/12/27 10:50:31;;;;;;;0.30;0.30;;;14.90;94.60;;;;;;5032991;28;20018;-76
2021/12/27 10:53:05;;;;;;;0.10;0.10;;;14.60;90.30;;;;;;5028475;28;20026;-76
2021/12/27 10:55:39;;;;;;;0.20;0.20;;;14.80;90.30;;;;;;5030209;28;20032;-75
2021/12/27 10:58:18;;;;;;;0.10;0.10;;;14.50;90.40;;;;;;5013901;28;20025;-76
2021/12/27 11:00:55;;;;;;;0.30;0.30;;;13.70;93.30;;;;;;5030694;28;20488;-76
2021/12/27 11:03:36;;;;;;;0.20;0.20;;;13.00;93.90;;;;;;5013963;28;20503;-76
2021/12/27 11:06:08;;;;;;;0.10;0.10;;;12.60;96.10;;;;;;5014043;28;20029;-76
2021/12/27 11:08:38;;;;;;;0.20;0.20;;;13.00;96.30;;;;;;5030417;28;20056;-76
2021/12/27 11:11:06;;;;;;;0.10;0.10;;;12.70;95.80;;;;;;5031519;28;20469;-76
2021/12/27 11:13:32;;;;;;;0.10;0.10;;;12.90;95.80;;;;;;5013730;28;20030;-77
2021/12/27 11:15:59;;;;;;;1.23;1.10;;;13.50;96.40;;;;;;5030271;28;20079;-76
2021/12/27 11:18:25;;;;;;;0.10;0.10;;;14.60;92.90;;;;;;5013504;28;20021;-77
2021/12/27 11:20:55;;;;;;;0.68;0.68;;;15.20;90.90;;;;;;5031274;28;20030;-79
2021/12/27 11:23:22;;;;;;;0.10;0.10;;;16.10;86.60;;;;;;5030968;28;20026;-76
2021/12/27 11:25:57;;;;;;;0.20;0.20;;;16.70;82.10;;;;;;5029950;28;20036;-76
2021/12/27 11:28:29;;;;;;;0.10;0.10;;;17.20;77.00;;;;;;5030052;28;20524;-76
2021/12/27 11:30:56;;;;;;;0.10;0.10;;;17.40;73.70;;;;;;5029917;28;20112;-76
2021/12/27 11:33:23;;;;;;;0.85;0.85;;;17.40;71.50;;;;;;5031454;28;20030;-76
2021/12/27 11:35:51;;;;;;;0.20;0.20;;;17.40;71.40;;;;;;5029967;28;20121;-75
2021/12/27 11:38:42;;;;;;;0.35;0.35;;;17.20;70.40;;;;;;5031212;28;20029;-75
2021/12/27 11:41:28;;;;;;;0.10;0.10;;;16.70;72.60;;;;;;5028489;28;20091;-75
2021/12/27 11:43:56;;;;;;;0.10;0.10;;;16.80;71.00;;;;;;5031202;28;20075;-76
2021/12/27 11:46:24;;;;;;;0.10;0.10;;;17.10;70.40;;;;;;5030202;28;20496;-77
2021/12/27 11:48:56;;;;;;;0.30;0.30;;;17.00;69.40;;;;;;5034664;28;20033;-77
2021/12/27 11:51:35;;;;;;;0.10;0.10;;;16.60;71.20;;;;;;5034836;28;20034;-76
2021/12/27 11:54:03;;;;;;;0.28;0.28;;;16.30;72.20;;;;;;5017135;28;20427;-75
2021/12/27 11:56:39;;;;;;;0.32;0.32;;;15.20;73.80;;;;;;5033207;28;20029;-75
2021/12/27 11:59:27;;;;;;;0.50;0.50;;;14.20;79.00;;;;;;5033265;28;20040;-76
2021/12/27 12:01:54;;;;;;;0.20;0.20;;;13.30;81.60;;;;;;5034801;28;20489;-76
2021/12/27 12:04:58;;;;;;;0.10;0.10;;;12.50;85.70;;;;;;5034384;28;20029;-76
2021/12/27 12:07:32;;;;;;;0.82;0.82;;;11.80;89.70;;;;;;5033041;28;20068;-76
2021/12/27 12:09:59;;;;;;;3.72;3.50;;;11.20;91.10;;;;;;5032885;28;20155;-76
2021/12/27 12:12:28;;;;;;;2.17;1.40;;;10.90;92.10;;;;;;5032835;28;20041;-76
2021/12/27 12:14:56;;;;;;;0.63;0.63;;;10.40;93.20;;;;;;5034480;28;20013;-76
2021/12/27 12:17:54;;;;;;;2.83;0.70;;;10.10;95.50;;;;;;5033013;28;20108;-75
2021/12/27 12:20:34;;;;;;;0.10;0.10;;;9.90;96.90;;;;;;5021500;28;20550;-75
2021/12/27 12:23:04;;;;;;;0.45;0.45;;;9.90;98.30;;;;;;5032925;28;20075;-76
2021/12/27 12:25:30;;;;;;;0.10;0.10;;;9.90;99.90;;;;;;5034046;28;20024;-76
2021/12/27 12:28:05;;;;;;;0.35;0.35;;;9.70;99.90;;;;;;5016213;28;20388;-75
2021/12/27 12:30:34;;;;;;;7.88;2.83;;;9.60;99.90;;;;;;5015753;28;20691;-76
2021/12/27 12:33:12;;;;;;;0.20;0.20;;;9.50;99.90;;;;;;5032809;28;20311;-76
2021/12/27 12:35:40;;;;;;;0.15;0.15;;;9.50;99.90;;;;;;5033501;28;20029;-76
2021/12/27 12:38:14;;;;;;;0.65;0.50;;;9.50;99.90;;;;;;5032926;28;20025;-76
2021/12/27 12:40:40;;;;;;;0.30;0.30;;;9.40;99.90;;;;;;5032599;28;20032;-76
2021/12/27 12:43:06;;;;;;;1.52;1.42;;;9.40;99.90;;;;;;5033882;28;20029;-77
2021/12/27 12:45:33;;;;;;;10.40;9.50;;;9.30;99.90;;;;;;5032302;28;20543;-76
2021/12/27 12:47:59;;;;;;;5.78;5.45;;;9.30;99.90;;;;;;5032509;28;20021;-76
2021/12/27 12:50:25;;;;;;;0.50;0.50;;;9.30;99.90;;;;;;5032379;28;20033;-75
2021/12/27 12:53:00;;;;;;;0.25;0.25;;;9.20;99.90;;;;;;5032409;28;20024;-75
2021/12/27 12:55:35;;;;;;;0.20;0.20;;;9.20;99.90;;;;;;5033125;28;20029;-77
2021/12/27 12:58:02;;;;;;;0.68;0.65;;;9.30;99.90;;;;;;5033206;28;20059;-77
2021/12/27 13:00:33;;;;;;;0.20;0.20;;;9.20;99.90;;;;;;5032197;28;20026;-76
2021/12/27 13:03:13;;;;;;;0.30;0.30;;;9.20;99.90;;;;;;5033461;28;20031;-77
2021/12/27 13:05:39;;;;;;;0.20;0.20;;;9.40;99.90;;;;;;5033253;28;20041;-77
2021/12/27 13:08:13;;;;;;;0.40;0.40;;;9.50;99.90;;;;;;5015447;28;20400;-77
2021/12/27 13:10:39;;;;;;;2.38;2.05;;;9.60;99.90;;;;;;5033131;28;20030;-75
2021/12/27 13:13:11;;;;;;;0.30;0.30;;;9.60;99.90;;;;;;5031707;28;20034;-76
2021/12/27 13:15:39;;;;;;;0.20;0.20;;;9.50;99.90;;;;;;5031606;28;20171;-76
2021/12/27 13:18:08;;;;;;;2.92;1.17;;;9.60;99.90;;;;;;5031549;28;20030;-74
2021/12/27 13:20:48;;;;;;;0.30;0.30;;;9.50;99.90;;;;;;5031566;28;20025;-77
2021/12/27 13:23:19;;;;;;;0.20;0.20;;;9.60;99.90;;;;;;5031553;28;20028;-77
2021/12/27 13:25:56;;;;;;;0.50;0.50;;;9.60;99.90;;;;;;5031295;28;20053;-77
2021/12/27 13:28:37;;;;;;;0.20;0.20;;;9.50;99.90;;;;;;5032706;28;20109;-76
2021/12/27 13:31:11;;;;;;;0.20;0.20;;;9.30;99.90;;;;;;5014558;28;20025;-76
2021/12/27 13:33:40;;;;;;;0.10;0.10;;;9.20;99.90;;;;;;5032567;28;20021;-77
2021/12/27 13:36:12;;;;;;;0.20;0.20;;;9.50;99.90;;;;;;5031244;28;20550;-77
2021/12/27 13:38:57;;;;;;;0.20;0.20;;;9.80;99.90;;;;;;5031325;28;20029;-76
2021/12/27 13:41:26;;;;;;;0.20;0.20;;;9.90;99.90;;;;;;5014965;28;20083;-77
2021/12/27 13:43:57;;;;;;;0.63;0.63;;;10.00;99.90;;;;;;5032622;28;20048;-76
2021/12/27 13:46:29;;;;;;;0.63;0.63;;;10.00;99.90;;;;;;5014873;28;20030;-76
2021/12/27 13:48:56;;;;;;;0.43;0.43;;;9.80;99.90;;;;;;5032320;28;20767;-76
2021/12/27 13:51:25;;;;;;;0.55;0.55;;;9.70;99.90;;;;;;5032483;28;20480;-76
2021/12/27 13:54:13;;;;;;;2.17;1.05;;;9.60;99.90;;;;;;5032550;28;20022;-76
2021/12/27 13:56:40;;;;;;;0.20;0.20;;;9.30;99.90;;;;;;5032241;28;20037;-77
2021/12/27 13:59:06;;;;;;;0.20;0.20;;;9.30;99.90;;;;;;5032364;28;20100;-76
2021/12/27 14:01:31;;;;;;;1.17;1.00;;;9.20;99.90;;;;;;5031109;28;20121;-77
2021/12/27 14:04:20;;;;;;;0.20;0.20;;;9.20;99.90;;;;;;5014694;28;20080;-77
2021/12/27 14:06:47;;;;;;;0.17;0.17;;;9.00;99.90;;;;;;5030965;28;20021;-76
2021/12/27 14:09:18;;;;;;;0.10;0.10;;;9.00;99.90;;;;;;5031404;28;20025;-77
2021/12/27 14:11:52;;;;;;;0.20;0.20;;;9.00;99.90;;;;;;5031185;28;20034;-77
2021/12/27 14:14:47;;;;;;;0.40;0.40;;;9.00;99.90;;;;;;5032062;28;20025;-77